Time;durP1;ratioP1;P1;durP2;ratioP2;P2;SDS_P1;SDS_P2;PMS_P1;PMS_P2;Temp;Humidity;BMP_temperature;BMP_pressure;BME280_temperature;BME280_humidity;BME280_pressure;Samples;Min_cycle;Max_cycle;Signal;HPM_P1;HPM_P2
2022/03/10 00:00:04;;;;;;;63.78;28.55;;;;;;;;;;5021823;28;20072;-67
2022/03/10 00:02:40;;;;;;;56.42;30.55;;;;;;;;;;5017236;28;20052;-67
2022/03/10 00:05:09;;;;;;;44.57;24.03;;;;;;;;;;5021966;28;20492;-66
2022/03/10 00:07:35;;;;;;;39.72;23.58;;;;;;;;;;5020541;28;20029;-67
2022/03/10 00:10:01;;;;;;;47.75;22.95;;;;;;;;;;5002523;28;20045;-66
2022/03/10 00:12:27;;;;;;;32.45;19.63;;;;;;;;;;5015211;28;20552;-67
2022/03/10 00:14:52;;;;;;;36.75;21.65;;;;;;;;;;5021050;28;20033;-66
2022/03/10 00:17:18;;;;;;;41.20;22.85;;;;;;;;;;5020720;28;20095;-67
2022/03/10 00:19:43;;;;;;;41.33;21.50;;;;;;;;;;5019297;28;20400;-67
2022/03/10 00:22:11;;;;;;;46.50;23.33;;;;;;;;;;5015139;28;20088;-66
2022/03/10 00:24:38;;;;;;;43.60;23.20;;;;;;;;;;5012541;28;20052;-66
2022/03/10 00:27:04;;;;;;;42.42;22.65;;;;;;;;;;5012353;28;20042;-66
2022/03/10 00:29:30;;;;;;;37.28;21.38;;;;;;;;;;5009772;28;20048;-67
2022/03/10 00:31:56;;;;;;;34.90;20.98;;;;;;;;;;5008328;28;20041;-67
2022/03/10 00:34:21;;;;;;;39.17;22.95;;;;;;;;;;5009547;28;20030;-65
2022/03/10 00:36:47;;;;;;;50.72;23.67;;;;;;;;;;4994654;28;20066;-66
2022/03/10 00:39:12;;;;;;;38.90;22.27;;;;;;;;;;5011463;28;20073;-67
2022/03/10 00:41:38;;;;;;;36.00;21.63;;;;;;;;;;5008426;28;20061;-68
2022/03/10 00:44:04;;;;;;;35.95;21.05;;;;;;;;;;5011036;28;20037;-66
2022/03/10 00:46:30;;;;;;;36.25;21.08;;;;;;;;;;5011145;28;20190;-66
2022/03/10 00:48:56;;;;;;;35.22;20.77;;;;;;;;;;5012949;28;20108;-65
2022/03/10 00:51:21;;;;;;;36.55;20.92;;;;;;;;;;5010398;28;20489;-67
2022/03/10 00:53:47;;;;;;;37.25;20.85;;;;;;;;;;4992647;28;20049;-67
2022/03/10 00:56:13;;;;;;;29.40;20.30;;;;;;;;;;5010587;28;20109;-68
2022/03/10 00:58:38;;;;;;;36.67;20.75;;;;;;;;;;5008541;28;20040;-66
2022/03/10 01:01:04;;;;;;;33.78;20.23;;;;;;;;;;5009793;28;20493;-67
2022/03/10 01:03:29;;;;;;;38.10;21.48;;;;;;;;;;5011131;28;20383;-66
2022/03/10 01:05:55;;;;;;;35.47;20.67;;;;;;;;;;5007182;28;20061;-68
2022/03/10 01:08:20;;;;;;;42.40;21.63;;;;;;;;;;5010026;28;20038;-66
2022/03/10 01:10:46;;;;;;;34.95;21.77;;;;;;;;;;5009362;28;20057;-67
2022/03/10 01:13:13;;;;;;;39.20;21.60;;;;;;;;;;5002418;28;20148;-67
2022/03/10 01:15:41;;;;;;;37.90;22.20;;;;;;;;;;5009504;28;20121;-66
2022/03/10 01:18:08;;;;;;;35.03;21.85;;;;;;;;;;5010460;28;20625;-65
2022/03/10 01:20:34;;;;;;;34.58;20.25;;;;;;;;;;5008514;28;20493;-67
2022/03/10 01:23:00;;;;;;;33.88;20.20;;;;;;;;;;5008051;28;20037;-67
2022/03/10 01:25:26;;;;;;;38.50;22.27;;;;;;;;;;5009583;28;20038;-68
2022/03/10 01:27:52;;;;;;;37.85;21.52;;;;;;;;;;5010098;28;20041;-68
2022/03/10 01:30:17;;;;;;;36.58;21.00;;;;;;;;;;5008072;28;20417;-66
2022/03/10 01:32:44;;;;;;;38.85;20.92;;;;;;;;;;5009586;28;20034;-67
2022/03/10 01:35:10;;;;;;;42.42;21.33;;;;;;;;;;5008335;28;20188;-67
2022/03/10 01:37:39;;;;;;;35.28;20.27;;;;;;;;;;5010121;28;20041;-67
2022/03/10 01:40:08;;;;;;;33.47;21.48;;;;;;;;;;5007230;28;20026;-67
2022/03/10 01:42:33;;;;;;;36.47;20.73;;;;;;;;;;5009317;28;20169;-66
2022/03/10 01:45:00;;;;;;;35.78;20.90;;;;;;;;;;5009210;28;20367;-66
2022/03/10 01:47:25;;;;;;;36.55;20.23;;;;;;;;;;5009516;28;20045;-66
2022/03/10 01:49:51;;;;;;;37.75;22.42;;;;;;;;;;5007509;28;20041;-67
2022/03/10 01:52:19;;;;;;;34.28;19.98;;;;;;;;;;5008619;28;20112;-67
2022/03/10 01:54:44;;;;;;;33.63;21.27;;;;;;;;;;5008007;28;20049;-66
2022/03/10 01:57:11;;;;;;;23.40;17.75;;;;;;;;;;5008904;28;20042;-66
2022/03/10 01:59:41;;;;;;;30.10;20.52;;;;;;;;;;4990266;28;20065;-68
2022/03/10 02:02:07;;;;;;;;;;;;;;;;;;5009067;28;20041;-66
2022/03/10 02:04:33;;;;;;;38.72;22.08;;;;;;;;;;5009109;28;19913;-66
2022/03/10 02:07:05;;;;;;;31.35;21.00;;;;;;;;;;5007669;28;20037;-67
2022/03/10 02:12:16;;;;;;;33.30;19.25;;;;;;;;;;5008229;28;20501;-67
2022/03/10 02:17:26;;;;;;;33.20;20.38;;;;;;;;;;5006913;28;20037;-65
2022/03/10 02:19:55;;;;;;;36.50;20.48;;;;;;;;;;5008487;28;20052;-67
2022/03/10 02:22:21;;;;;;;41.50;24.17;;;;;;;;;;5009297;28;20041;-67
2022/03/10 02:24:48;;;;;;;33.40;20.88;;;;;;;;;;5010165;28;20041;-65
2022/03/10 02:27:25;;;;;;;34.42;20.75;;;;;;;;;;5002800;28;20041;-66
2022/03/10 02:29:57;;;;;;;32.97;19.25;;;;;;;;;;5008770;28;20041;-67
2022/03/10 02:32:22;;;;;;;35.30;20.83;;;;;;;;;;5008846;28;20065;-67
2022/03/10 02:34:49;;;;;;;31.55;20.55;;;;;;;;;;5006687;28;20068;-65
2022/03/10 02:37:16;;;;;;;37.50;21.02;;;;;;;;;;5002344;28;20038;-67
2022/03/10 02:39:42;;;;;;;32.17;20.92;;;;;;;;;;5008618;28;20568;-65
2022/03/10 02:42:09;;;;;;;36.88;21.33;;;;;;;;;;5007543;28;20532;-65
2022/03/10 02:44:46;;;;;;;32.45;20.48;;;;;;;;;;4998789;28;20492;-65
2022/03/10 02:47:12;;;;;;;28.90;19.80;;;;;;;;;;5003721;28;20099;-66
2022/03/10 02:49:39;;;;;;;32.13;20.48;;;;;;;;;;5006955;28;20433;-65
2022/03/10 02:52:05;;;;;;;28.23;19.45;;;;;;;;;;5008183;28;20083;-67
2022/03/10 02:54:31;;;;;;;28.77;17.85;;;;;;;;;;5006871;28;20049;-66
2022/03/10 02:56:57;;;;;;;31.25;19.85;;;;;;;;;;5011325;28;20083;-67
2022/03/10 02:59:23;;;;;;;33.65;19.52;;;;;;;;;;5012648;28;20034;-66
2022/03/10 03:01:49;;;;;;;32.40;19.45;;;;;;;;;;5011524;28;20141;-67
2022/03/10 03:04:15;;;;;;;32.03;19.42;;;;;;;;;;5010615;28;20033;-66
2022/03/10 03:06:41;;;;;;;36.90;20.95;;;;;;;;;;5011613;28;20518;-67
2022/03/10 03:09:07;;;;;;;31.55;18.80;;;;;;;;;;5011456;28;20045;-65
2022/03/10 03:11:32;;;;;;;28.98;19.73;;;;;;;;;;5009956;28;20038;-66
2022/03/10 03:13:58;;;;;;;27.45;18.73;;;;;;;;;;5009903;28;20041;-66
2022/03/10 03:16:27;;;;;;;25.77;18.08;;;;;;;;;;5011769;28;20038;-67
2022/03/10 03:18:52;;;;;;;36.58;21.15;;;;;;;;;;5001113;28;20687;-67
2022/03/10 03:21:19;;;;;;;36.10;21.42;;;;;;;;;;5009838;28;20073;-67
2022/03/10 03:23:44;;;;;;;37.03;21.45;;;;;;;;;;5011965;28;20046;-66
2022/03/10 03:26:10;;;;;;;29.58;19.48;;;;;;;;;;5011968;28;20030;-66
2022/03/10 03:28:36;;;;;;;29.02;20.30;;;;;;;;;;5009510;28;20045;-68
2022/03/10 03:31:03;;;;;;;20.42;16.73;;;;;;;;;;4994277;28;20092;-66
2022/03/10 03:33:30;;;;;;;30.88;19.20;;;;;;;;;;5012484;28;20495;-65
2022/03/10 03:35:57;;;;;;;14.57;13.10;;;;;;;;;;5009874;28;20042;-66
2022/03/10 03:38:23;;;;;;;33.17;18.23;;;;;;;;;;5008522;28;20485;-66
2022/03/10 03:40:49;;;;;;;28.50;19.90;;;;;;;;;;5010499;28;20037;-65
2022/03/10 03:43:15;;;;;;;29.60;18.58;;;;;;;;;;5011024;28;20473;-67
2022/03/10 03:45:40;;;;;;;19.95;16.00;;;;;;;;;;5012310;28;20038;-68
2022/03/10 03:48:06;;;;;;;19.17;14.65;;;;;;;;;;5010789;28;20091;-66
2022/03/10 03:50:32;;;;;;;27.98;16.40;;;;;;;;;;5009866;28;20489;-65
2022/03/10 03:52:57;;;;;;;28.17;18.02;;;;;;;;;;5012532;28;20176;-65
2022/03/10 03:55:23;;;;;;;32.05;20.90;;;;;;;;;;5011934;28;20083;-66
2022/03/10 03:57:49;;;;;;;29.30;18.27;;;;;;;;;;5004984;28;20527;-67
2022/03/10 04:00:15;;;;;;;27.83;18.13;;;;;;;;;;5010526;28;20544;-65
2022/03/10 04:02:42;;;;;;;26.90;17.10;;;;;;;;;;5010194;28;20069;-68
2022/03/10 04:05:08;;;;;;;23.73;16.20;;;;;;;;;;5011648;28;20460;-65
2022/03/10 04:07:35;;;;;;;25.45;17.73;;;;;;;;;;5009104;28;20130;-66
2022/03/10 04:10:01;;;;;;;33.40;19.40;;;;;;;;;;5009918;28;20041;-67
2022/03/10 04:12:27;;;;;;;29.30;19.25;;;;;;;;;;5009571;28;20121;-68
2022/03/10 04:14:52;;;;;;;33.63;20.65;;;;;;;;;;5010518;28;20049;-68
2022/03/10 04:17:18;;;;;;;31.60;20.35;;;;;;;;;;5004226;28;20046;-66
2022/03/10 04:19:44;;;;;;;21.35;16.77;;;;;;;;;;5008936;28;20050;-65
2022/03/10 04:22:10;;;;;;;26.27;17.75;;;;;;;;;;5009994;28;20041;-66
2022/03/10 04:24:36;;;;;;;26.73;18.23;;;;;;;;;;5010236;28;20042;-68
2022/03/10 04:27:02;;;;;;;30.35;18.80;;;;;;;;;;5009147;28;20033;-67
2022/03/10 04:29:27;;;;;;;26.38;18.35;;;;;;;;;;5010493;28;20034;-67
2022/03/10 04:31:53;;;;;;;23.52;18.25;;;;;;;;;;5011110;28;20501;-67
2022/03/10 04:34:18;;;;;;;25.35;18.17;;;;;;;;;;5009810;28;20046;-66
2022/03/10 04:36:44;;;;;;;20.80;16.02;;;;;;;;;;5009601;28;20125;-66
2022/03/10 04:39:10;;;;;;;25.70;18.20;;;;;;;;;;5010419;28;20386;-67
2022/03/10 04:41:36;;;;;;;30.92;19.02;;;;;;;;;;5007590;28;20100;-67
2022/03/10 04:44:02;;;;;;;26.95;18.13;;;;;;;;;;5010123;28;20026;-68
2022/03/10 04:46:27;;;;;;;24.27;17.63;;;;;;;;;;5010752;28;20068;-67
2022/03/10 04:48:54;;;;;;;27.35;18.02;;;;;;;;;;5006059;28;20565;-66
2022/03/10 04:51:20;;;;;;;27.20;18.25;;;;;;;;;;5010513;28;20052;-67
2022/03/10 04:53:46;;;;;;;28.75;18.58;;;;;;;;;;5009230;28;20334;-67
2022/03/10 04:56:12;;;;;;;29.33;19.15;;;;;;;;;;5007671;28;20047;-68
2022/03/10 04:58:38;;;;;;;31.67;20.15;;;;;;;;;;5009217;28;20045;-67
2022/03/10 05:01:03;;;;;;;28.35;19.55;;;;;;;;;;5010029;28;20041;-66
2022/03/10 05:03:31;;;;;;;31.08;20.13;;;;;;;;;;5009446;28;20069;-66
2022/03/10 05:05:57;;;;;;;26.90;18.52;;;;;;;;;;5007857;28;20037;-66
2022/03/10 05:08:22;;;;;;;31.58;19.50;;;;;;;;;;5009054;28;20038;-67
2022/03/10 05:10:51;;;;;;;31.88;19.02;;;;;;;;;;5009911;28;20092;-66
2022/03/10 05:13:16;;;;;;;27.25;17.88;;;;;;;;;;5009778;28;20063;-67
2022/03/10 05:15:43;;;;;;;31.63;19.45;;;;;;;;;;5006780;28;20033;-68
2022/03/10 05:18:08;;;;;;;29.42;18.42;;;;;;;;;;5005285;28;20332;-67
2022/03/10 05:20:35;;;;;;;26.33;18.23;;;;;;;;;;5004288;28;20489;-67
2022/03/10 05:23:04;;;;;;;19.33;16.20;;;;;;;;;;5009564;28;20041;-67
2022/03/10 05:25:38;;;;;;;31.60;20.50;;;;;;;;;;5004778;28;20041;-67
2022/03/10 05:28:06;;;;;;;33.60;20.45;;;;;;;;;;5004503;28;20034;-66
2022/03/10 05:30:32;;;;;;;36.80;21.77;;;;;;;;;;5008675;28;20164;-66
2022/03/10 05:32:58;;;;;;;33.70;22.05;;;;;;;;;;5007584;28;20121;-66
2022/03/10 05:35:24;;;;;;;35.80;23.73;;;;;;;;;;5008642;28;20045;-66
2022/03/10 05:37:49;;;;;;;41.38;22.05;;;;;;;;;;5009264;28;20067;-66
2022/03/10 05:40:18;;;;;;;34.63;21.10;;;;;;;;;;5007829;28;20076;-66
2022/03/10 05:42:45;;;;;;;39.70;20.83;;;;;;;;;;5007446;28;20045;-66
2022/03/10 05:45:12;;;;;;;40.60;22.00;;;;;;;;;;5009206;28;20038;-65
2022/03/10 05:47:39;;;;;;;37.25;21.70;;;;;;;;;;4999753;28;20536;-66
2022/03/10 05:50:06;;;;;;;31.02;19.80;;;;;;;;;;5006809;28;20044;-66
2022/03/10 05:52:32;;;;;;;34.10;21.27;;;;;;;;;;5015602;28;20042;-67
2022/03/10 05:54:57;;;;;;;30.08;20.73;;;;;;;;;;5008822;28;20048;-66
2022/03/10 05:57:23;;;;;;;17.80;14.98;;;;;;;;;;5004861;28;20048;-66
2022/03/10 05:59:49;;;;;;;20.45;15.80;;;;;;;;;;5008570;28;20497;-66
2022/03/10 06:02:18;;;;;;;30.65;19.63;;;;;;;;;;5008460;28;20041;-66
2022/03/10 06:04:44;;;;;;;30.30;19.75;;;;;;;;;;4997706;28;20205;-66
2022/03/10 06:07:10;;;;;;;34.00;21.17;;;;;;;;;;5006468;28;20044;-67
2022/03/10 06:09:36;;;;;;;32.75;20.98;;;;;;;;;;5008362;28;20050;-65
2022/03/10 06:12:02;;;;;;;33.58;19.52;;;;;;;;;;5008602;28;20038;-65
2022/03/10 06:14:28;;;;;;;24.70;16.10;;;;;;;;;;5004324;28;20504;-66
2022/03/10 06:16:54;;;;;;;27.73;19.17;;;;;;;;;;5007783;28;20085;-65
2022/03/10 06:19:20;;;;;;;26.55;18.30;;;;;;;;;;5001024;28;20048;-66
2022/03/10 06:21:46;;;;;;;28.08;18.75;;;;;;;;;;5008273;28;20038;-66
2022/03/10 06:24:12;;;;;;;29.67;19.55;;;;;;;;;;5008521;28;20042;-66
2022/03/10 06:26:38;;;;;;;33.60;21.40;;;;;;;;;;5003083;28;20046;-65
2022/03/10 06:29:05;;;;;;;36.03;23.00;;;;;;;;;;5008262;28;20072;-67
2022/03/10 06:31:31;;;;;;;40.30;22.35;;;;;;;;;;5008610;28;20041;-64
2022/03/10 06:33:57;;;;;;;32.78;20.92;;;;;;;;;;5004403;28;20034;-66
2022/03/10 06:36:23;;;;;;;35.17;22.23;;;;;;;;;;5003702;28;20111;-66
2022/03/10 06:38:49;;;;;;;31.10;18.90;;;;;;;;;;5007192;28;20448;-66
2022/03/10 06:41:15;;;;;;;36.97;21.20;;;;;;;;;;5008043;28;20038;-65
2022/03/10 06:43:40;;;;;;;32.63;21.20;;;;;;;;;;5008776;28;20069;-66
2022/03/10 06:46:06;;;;;;;36.38;19.77;;;;;;;;;;5006769;28;20031;-66
2022/03/10 06:48:32;;;;;;;32.50;21.95;;;;;;;;;;5008342;28;20083;-66
2022/03/10 06:50:57;;;;;;;27.08;19.20;;;;;;;;;;5007840;28;20040;-64
2022/03/10 06:53:23;;;;;;;33.78;20.15;;;;;;;;;;5003071;28;20583;-65
2022/03/10 06:55:49;;;;;;;33.97;20.33;;;;;;;;;;5007158;28;20069;-65
2022/03/10 06:58:14;;;;;;;34.50;20.10;;;;;;;;;;5008017;28;20563;-67
2022/03/10 07:00:40;;;;;;;23.45;18.63;;;;;;;;;;5008208;28;20732;-66
2022/03/10 07:03:06;;;;;;;28.27;19.50;;;;;;;;;;5005066;28;20156;-66
2022/03/10 07:05:32;;;;;;;31.60;21.38;;;;;;;;;;5007110;28;20045;-66
2022/03/10 07:07:57;;;;;;;26.60;20.02;;;;;;;;;;5007191;28;20030;-65
2022/03/10 07:10:23;;;;;;;38.63;22.70;;;;;;;;;;5006803;28;20042;-67
2022/03/10 07:12:49;;;;;;;32.95;20.42;;;;;;;;;;5006772;28;20040;-67
2022/03/10 07:15:14;;;;;;;27.38;19.65;;;;;;;;;;5007790;28;20600;-67
2022/03/10 07:17:41;;;;;;;36.13;21.67;;;;;;;;;;5007451;28;20034;-65
2022/03/10 07:20:08;;;;;;;33.72;20.98;;;;;;;;;;5007003;28;20042;-67
2022/03/10 07:22:35;;;;;;;30.02;19.95;;;;;;;;;;5007299;28;20401;-65
2022/03/10 07:25:01;;;;;;;33.10;20.63;;;;;;;;;;5007553;28;20461;-66
2022/03/10 07:27:27;;;;;;;39.67;23.17;;;;;;;;;;5007747;28;20530;-65
2022/03/10 07:29:52;;;;;;;38.78;21.10;;;;;;;;;;5002434;28;20121;-66
2022/03/10 07:32:18;;;;;;;32.97;22.17;;;;;;;;;;5006972;28;20129;-66
2022/03/10 07:34:47;;;;;;;37.83;21.85;;;;;;;;;;5007656;28;20109;-66
2022/03/10 07:37:16;;;;;;;34.85;22.63;;;;;;;;;;5006343;28;20049;-67
2022/03/10 07:39:41;;;;;;;36.25;22.60;;;;;;;;;;5005107;28;20033;-68
2022/03/10 07:42:07;;;;;;;32.72;21.38;;;;;;;;;;5008121;28;20417;-66
2022/03/10 07:44:35;;;;;;;43.30;23.80;;;;;;;;;;5009505;28;20042;-67
2022/03/10 07:47:01;;;;;;;41.20;23.23;;;;;;;;;;5010768;28;20053;-67
2022/03/10 07:49:28;;;;;;;38.08;22.65;;;;;;;;;;5009759;28;20393;-67
2022/03/10 07:51:53;;;;;;;32.90;23.63;;;;;;;;;;5010719;28;20045;-67
2022/03/10 07:54:19;;;;;;;35.80;24.75;;;;;;;;;;5009804;28;20033;-67
2022/03/10 07:56:45;;;;;;;36.85;24.00;;;;;;;;;;5007465;28;20034;-67
2022/03/10 07:59:10;;;;;;;32.83;24.52;;;;;;;;;;5010595;28;20048;-68
2022/03/10 08:01:36;;;;;;;44.05;23.88;;;;;;;;;;5010669;28;20061;-69
2022/03/10 08:04:02;;;;;;;36.80;23.95;;;;;;;;;;5008695;28;20175;-67
2022/03/10 08:06:28;;;;;;;29.95;23.98;;;;;;;;;;5002861;28;20109;-68
2022/03/10 08:08:53;;;;;;;34.17;25.15;;;;;;;;;;5009653;28;20112;-66
2022/03/10 08:11:19;;;;;;;36.47;24.73;;;;;;;;;;5010725;28;20034;-67
2022/03/10 08:13:45;;;;;;;31.65;22.98;;;;;;;;;;5008630;28;20400;-69
2022/03/10 08:16:14;;;;;;;33.38;25.48;;;;;;;;;;4991952;28;20266;-67
2022/03/10 08:18:39;;;;;;;32.92;24.60;;;;;;;;;;5010922;28;20045;-68
2022/03/10 08:21:05;;;;;;;32.58;23.70;;;;;;;;;;5008626;28;20037;-68
2022/03/10 08:23:30;;;;;;;33.92;25.20;;;;;;;;;;5010611;28;20043;-67
2022/03/10 08:25:56;;;;;;;34.85;25.58;;;;;;;;;;5010526;28;20350;-69
2022/03/10 08:28:22;;;;;;;36.33;25.67;;;;;;;;;;5010264;28;20448;-68
2022/03/10 08:30:48;;;;;;;33.00;23.45;;;;;;;;;;5008880;28;20042;-69
2022/03/10 08:33:14;;;;;;;32.75;23.88;;;;;;;;;;5009595;28;20034;-69
2022/03/10 08:35:40;;;;;;;31.85;23.23;;;;;;;;;;5010169;28;20088;-69
2022/03/10 08:38:06;;;;;;;32.58;23.65;;;;;;;;;;5007551;28;20030;-69
2022/03/10 08:40:32;;;;;;;34.78;24.17;;;;;;;;;;5008968;28;20163;-69
2022/03/10 08:42:58;;;;;;;36.58;25.17;;;;;;;;;;5010438;28;20611;-70
2022/03/10 08:45:25;;;;;;;27.77;22.85;;;;;;;;;;5004372;28;20497;-70
2022/03/10 08:47:53;;;;;;;29.52;23.13;;;;;;;;;;5008855;28;20081;-68
2022/03/10 08:50:20;;;;;;;29.30;21.75;;;;;;;;;;5009174;28;20567;-69
2022/03/10 08:52:46;;;;;;;32.58;21.42;;;;;;;;;;5009466;28;20152;-70
2022/03/10 08:55:12;;;;;;;31.10;22.80;;;;;;;;;;5009757;28;20112;-68
2022/03/10 08:57:39;;;;;;;29.90;24.42;;;;;;;;;;5007751;28;20338;-71
2022/03/10 09:00:07;;;;;;;29.77;23.65;;;;;;;;;;5006349;28;20301;-70
2022/03/10 09:02:33;;;;;;;32.27;24.93;;;;;;;;;;5010851;28;20041;-70
2022/03/10 09:04:59;;;;;;;30.25;23.80;;;;;;;;;;5010167;28;20045;-70
2022/03/10 09:07:25;;;;;;;33.65;24.23;;;;;;;;;;5008323;28;20318;-69
2022/03/10 09:09:50;;;;;;;31.45;24.50;;;;;;;;;;5008988;28;20378;-71
2022/03/10 09:12:16;;;;;;;32.03;23.88;;;;;;;;;;5009605;28;20069;-69
2022/03/10 09:14:41;;;;;;;33.40;23.30;;;;;;;;;;5009739;28;20046;-69
2022/03/10 09:17:07;;;;;;;28.45;23.80;;;;;;;;;;5007995;28;20045;-69
2022/03/10 09:19:33;;;;;;;30.63;23.02;;;;;;;;;;5009225;28;20539;-70
2022/03/10 09:21:59;;;;;;;27.60;22.25;;;;;;;;;;5008293;28;20523;-70
2022/03/10 09:24:25;;;;;;;26.20;20.35;;;;;;;;;;5010299;28;20128;-68
2022/03/10 09:26:51;;;;;;;23.80;20.20;;;;;;;;;;5005571;28;20045;-68
2022/03/10 09:29:18;;;;;;;27.30;20.60;;;;;;;;;;5009031;28;20042;-68
2022/03/10 09:31:44;;;;;;;24.05;20.95;;;;;;;;;;5009530;28;20029;-69
2022/03/10 09:34:09;;;;;;;26.50;20.65;;;;;;;;;;5005324;28;20037;-69
2022/03/10 09:36:35;;;;;;;39.00;26.17;;;;;;;;;;5006179;28;20026;-67
2022/03/10 09:39:01;;;;;;;23.77;20.02;;;;;;;;;;5009195;28;20129;-67
2022/03/10 09:41:28;;;;;;;27.63;20.30;;;;;;;;;;5008920;28;20037;-68
2022/03/10 09:43:54;;;;;;;24.58;20.35;;;;;;;;;;5006111;28;20116;-68
2022/03/10 09:46:21;;;;;;;20.33;18.23;;;;;;;;;;5008076;28;20710;-67
2022/03/10 09:48:47;;;;;;;20.08;18.08;;;;;;;;;;5009637;28;20110;-66
2022/03/10 09:51:13;;;;;;;22.40;18.77;;;;;;;;;;5008410;28;20037;-67
2022/03/10 09:53:39;;;;;;;23.65;18.88;;;;;;;;;;5006223;28;20041;-67
2022/03/10 09:56:05;;;;;;;23.58;19.17;;;;;;;;;;5007608;28;20500;-68
2022/03/10 09:58:31;;;;;;;22.90;19.13;;;;;;;;;;5009100;28;20092;-69
2022/03/10 10:01:01;;;;;;;20.13;17.95;;;;;;;;;;5007841;28;20401;-70
2022/03/10 10:03:27;;;;;;;20.92;18.48;;;;;;;;;;5005450;28;20282;-69
2022/03/10 10:05:58;;;;;;;19.35;17.30;;;;;;;;;;5008233;28;20294;-71
2022/03/10 10:08:24;;;;;;;17.58;15.98;;;;;;;;;;5024010;23;20073;-72
2022/03/10 10:10:53;;;;;;;19.95;18.05;;;;;;;;;;5022870;28;20064;-75
2022/03/10 10:13:26;;;;;;;18.88;16.35;;;;;;;;;;5023614;28;20037;-75
2022/03/10 10:15:58;;;;;;;19.27;17.27;;;;;;;;;;5027545;28;20038;-76
2022/03/10 10:18:24;;;;;;;20.00;16.52;;;;;;;;;;5028021;28;20033;-75
2022/03/10 10:20:52;;;;;;;18.85;16.08;;;;;;;;;;5026232;28;20079;-75
2022/03/10 10:23:29;;;;;;;18.33;16.40;;;;;;;;;;5026621;28;20108;-75
2022/03/10 10:26:03;;;;;;;15.90;14.43;;;;;;;;;;5026627;28;20057;-75
2022/03/10 10:28:39;;;;;;;16.48;14.98;;;;;;;;;;5028278;28;20040;-75
2022/03/10 10:31:07;;;;;;;13.85;12.48;;;;;;;;;;5025830;28;20048;-75
2022/03/10 10:33:35;;;;;;;13.90;12.50;;;;;;;;;;5025540;28;20427;-75
2022/03/10 10:36:12;;;;;;;12.95;11.75;;;;;;;;;;5026965;28;20065;-75
2022/03/10 10:38:38;;;;;;;12.57;11.38;;;;;;;;;;5028338;28;20045;-75
2022/03/10 10:41:22;;;;;;;13.20;12.10;;;;;;;;;;5025117;28;20041;-75
2022/03/10 10:43:57;;;;;;;12.13;11.23;;;;;;;;;;5027539;28;20041;-75
2022/03/10 10:46:44;;;;;;;12.57;11.48;;;;;;;;;;5027863;28;20033;-75
2022/03/10 10:49:15;;;;;;;13.35;10.77;;;;;;;;;;5020068;28;20033;-75
2022/03/10 10:51:44;;;;;;;12.93;11.75;;;;;;;;;;5025784;28;20033;-75
2022/03/10 10:54:24;;;;;;;11.93;11.03;;;;;;;;;;5027784;28;20080;-74
2022/03/10 10:56:57;;;;;;;11.88;10.90;;;;;;;;;;5026448;28;20037;-76
2022/03/10 10:59:39;;;;;;;11.20;10.40;;;;;;;;;;5025740;28;20049;-76
2022/03/10 11:02:27;;;;;;;12.00;11.10;;;;;;;;;;5025607;28;20091;-75
2022/03/10 11:04:53;;;;;;;11.73;10.85;;;;;;;;;;5026286;28;20042;-76
2022/03/10 11:07:22;;;;;;;12.38;11.27;;;;;;;;;;5017137;28;20049;-76
2022/03/10 11:09:49;;;;;;;12.25;11.35;;;;;;;;;;5026168;28;20099;-75
2022/03/10 11:12:17;;;;;;;11.35;10.55;;;;;;;;;;5027365;28;20033;-75
2022/03/10 11:14:44;;;;;;;11.48;10.68;;;;;;;;;;5010162;28;20034;-75
2022/03/10 11:17:12;;;;;;;12.00;11.10;;;;;;;;;;5026371;28;20470;-76
2022/03/10 11:19:43;;;;;;;12.40;11.50;;;;;;;;;;5031619;28;20037;-75
2022/03/10 11:22:31;;;;;;;12.00;11.13;;;;;;;;;;5031150;28;20037;-74
2022/03/10 11:25:18;;;;;;;11.82;11.02;;;;;;;;;;5028161;28;20033;-75
2022/03/10 11:28:02;;;;;;;11.00;10.20;;;;;;;;;;5012660;28;20435;-74
2022/03/10 11:30:30;;;;;;;12.10;11.20;;;;;;;;;;5025415;28;20115;-75
2022/03/10 11:33:09;;;;;;;11.93;11.02;;;;;;;;;;5029918;28;20041;-74
2022/03/10 11:35:41;;;;;;;11.38;10.57;;;;;;;;;;5028195;28;20033;-75
2022/03/10 11:38:06;;;;;;;11.90;11.00;;;;;;;;;;5030738;28;20056;-75
2022/03/10 11:40:44;;;;;;;12.82;11.82;;;;;;;;;;5031312;28;20037;-74
2022/03/10 11:43:16;;;;;;;12.10;11.30;;;;;;;;;;5028458;28;20036;-74
2022/03/10 11:45:41;;;;;;;12.95;11.93;;;;;;;;;;5013283;28;20045;-74
2022/03/10 11:48:22;;;;;;;12.48;11.57;;;;;;;;;;5032163;28;20112;-74
2022/03/10 11:50:50;;;;;;;12.00;11.20;;;;;;;;;;5027638;28;20104;-73
2022/03/10 11:53:16;;;;;;;12.95;11.57;;;;;;;;;;5028096;28;20033;-74
2022/03/10 11:55:46;;;;;;;12.95;11.82;;;;;;;;;;5029018;28;20485;-75
2022/03/10 11:58:13;;;;;;;12.63;11.50;;;;;;;;;;5031136;28;20049;-74
2022/03/10 12:00:38;;;;;;;11.73;10.93;;;;;;;;;;5019918;28;20037;-74
2022/03/10 12:03:04;;;;;;;12.75;11.85;;;;;;;;;;5029568;28;20063;-74
2022/03/10 12:05:53;;;;;;;13.02;12.13;;;;;;;;;;5030416;28;20037;-74
2022/03/10 12:08:24;;;;;;;12.93;12.02;;;;;;;;;;5029243;28;20040;-74
2022/03/10 12:10:50;;;;;;;14.38;13.23;;;;;;;;;;5027954;28;20393;-74
2022/03/10 12:13:36;;;;;;;13.88;12.63;;;;;;;;;;5029952;28;20040;-74
2022/03/10 12:16:06;;;;;;;14.60;13.40;;;;;;;;;;5026719;28;20587;-75
2022/03/10 12:18:44;;;;;;;14.23;13.13;;;;;;;;;;5026706;28;20049;-74
2022/03/10 12:21:26;;;;;;;14.25;13.15;;;;;;;;;;5026467;28;20079;-74
2022/03/10 12:24:03;;;;;;;13.98;12.88;;;;;;;;;;5023743;28;20037;-74
2022/03/10 12:26:29;;;;;;;14.88;13.73;;;;;;;;;;5024510;28;20060;-74
2022/03/10 12:29:11;;;;;;;14.13;12.82;;;;;;;;;;5026780;28;20073;-74
2022/03/10 12:31:39;;;;;;;15.20;13.85;;;;;;;;;;5021726;28;20069;-75
2022/03/10 12:34:12;;;;;;;40.75;24.20;;;;;;;;;;5025266;28;20148;-75
2022/03/10 12:36:50;;;;;;;15.43;14.07;;;;;;;;;;5026007;28;20044;-74
2022/03/10 12:39:18;;;;;;;16.73;15.25;;;;;;;;;;5021665;28;20086;-75
2022/03/10 12:41:47;;;;;;;15.43;14.27;;;;;;;;;;5019350;28;20042;-74
2022/03/10 12:44:13;;;;;;;15.35;14.05;;;;;;;;;;5019112;28;20852;-74
2022/03/10 12:46:43;;;;;;;18.80;16.90;;;;;;;;;;5026173;28;20041;-74
2022/03/10 12:49:30;;;;;;;16.20;14.90;;;;;;;;;;5026475;28;20041;-74
2022/03/10 12:51:57;;;;;;;14.27;13.18;;;;;;;;;;5027495;28;20033;-74
2022/03/10 12:54:23;;;;;;;15.18;13.68;;;;;;;;;;5008669;28;20041;-74
2022/03/10 12:56:57;;;;;;;15.13;13.93;;;;;;;;;;5026241;28;20083;-74
2022/03/10 12:59:34;;;;;;;14.65;13.25;;;;;;;;;;5026489;28;20077;-74
2022/03/10 13:02:24;;;;;;;15.13;14.02;;;;;;;;;;5024396;28;20603;-74
2022/03/10 13:04:55;;;;;;;13.88;12.88;;;;;;;;;;5027229;28;20029;-74
2022/03/10 13:07:22;;;;;;;15.45;14.25;;;;;;;;;;5027892;28;20048;-74
2022/03/10 13:09:51;;;;;;;16.27;14.88;;;;;;;;;;5027353;28;20072;-74
2022/03/10 13:12:28;;;;;;;15.43;14.27;;;;;;;;;;5023946;28;20037;-74
2022/03/10 13:14:54;;;;;;;15.25;14.10;;;;;;;;;;5027069;28;20436;-74
2022/03/10 13:17:42;;;;;;;15.90;14.70;;;;;;;;;;5010463;28;20460;-74
2022/03/10 13:20:11;;;;;;;15.38;14.07;;;;;;;;;;5028776;28;20083;-73
2022/03/10 13:22:44;;;;;;;15.65;14.38;;;;;;;;;;5029492;28;20555;-73
2022/03/10 13:25:10;;;;;;;15.63;14.43;;;;;;;;;;5027261;28;20044;-73
2022/03/10 13:27:35;;;;;;;15.88;14.60;;;;;;;;;;5027658;28;20036;-74
2022/03/10 13:30:01;;;;;;;16.08;14.68;;;;;;;;;;5025400;28;20037;-75
2022/03/10 13:32:31;;;;;;;15.75;14.45;;;;;;;;;;5027220;28;20126;-73
2022/03/10 13:35:00;;;;;;;15.57;14.15;;;;;;;;;;5027047;28;20033;-73
2022/03/10 13:37:26;;;;;;;15.68;14.38;;;;;;;;;;5024227;28;20041;-74
2022/03/10 13:39:52;;;;;;;15.70;14.15;;;;;;;;;;5026155;28;20123;-74
2022/03/10 13:42:23;;;;;;;15.85;14.27;;;;;;;;;;5027226;28;20112;-73
2022/03/10 13:45:07;;;;;;;16.05;14.63;;;;;;;;;;5027368;28;20079;-74
2022/03/10 13:48:03;;;;;;;15.77;14.57;;;;;;;;;;5032586;28;20159;-74
2022/03/10 13:50:32;;;;;;;14.38;13.27;;;;;;;;;;5003662;28;20045;-74
2022/03/10 13:53:00;;;;;;;14.13;13.02;;;;;;;;;;5003074;28;20416;-73
2022/03/10 13:55:43;;;;;;;15.50;14.20;;;;;;;;;;5003679;28;20136;-73
2022/03/10 13:58:09;;;;;;;14.85;13.70;;;;;;;;;;5016750;28;20061;-74
2022/03/10 14:00:40;;;;;;;14.60;13.50;;;;;;;;;;5007935;28;20115;-73
2022/03/10 14:03:14;;;;;;;13.98;12.70;;;;;;;;;;4997542;28;20493;-73
2022/03/10 14:05:43;;;;;;;15.52;14.15;;;;;;;;;;5003166;28;20138;-73
2022/03/10 14:08:17;;;;;;;15.32;13.93;;;;;;;;;;5004046;28;20042;-74
2022/03/10 14:10:42;;;;;;;14.23;12.70;;;;;;;;;;5005593;28;20060;-74
2022/03/10 14:13:09;;;;;;;15.55;14.25;;;;;;;;;;5003505;28;20049;-73
2022/03/10 14:15:36;;;;;;;14.63;13.35;;;;;;;;;;5001708;28;20042;-74
2022/03/10 14:18:10;;;;;;;13.90;12.70;;;;;;;;;;4997237;28;20493;-73
2022/03/10 14:20:42;;;;;;;14.38;13.00;;;;;;;;;;5014568;28;20046;-74
2022/03/10 14:23:09;;;;;;;13.77;12.65;;;;;;;;;;5006124;28;20048;-73
2022/03/10 14:25:56;;;;;;;13.63;12.63;;;;;;;;;;5004519;28;20045;-73
2022/03/10 14:28:37;;;;;;;13.98;12.70;;;;;;;;;;5022861;28;20460;-73